Sally Bromfield — WDG4107 — position and weather

sailwx.info

Track history (hours):
 
Tides and Currents Weather Stations Pressure Air Temp Water Temp Dewpoint Dewpoint Depression Visibility Wind Speed Wind Dir Waves Ship Positions

Sally Bromfield

Owner: Ingram Barge Company LLC, Nashville, TN. More information available from US FCC via Universal Licensing System and Coast Guard Vessel Documentation Center.

Last reported at 2018-Feb-18 15:38 UTC. Time now 2018-Feb-22 15:08 UTC.
Position N 31°59' W 091°09'.

Length 55 m; draft 3 m.

Type: Towing. MMSI: 367533050.

Date/timePositionNaut miles runAvg speedWind from/ knotsBaromVisibWave heightAir tempDewpointWater temp
2018-Feb-18 15:38N 31°59' W 091°09'2 6.8
2018-Feb-18 15:24N 31°59' W 091°07'3 6.7
2018-Feb-18 14:55N 32°01' W 091°04'4 6.8
2018-Feb-18 14:18N 32°05' W 091°05'2 8.0
2018-Feb-18 14:00N 32°07' W 091°07'4 7.9
2018-Feb-18 13:30N 32°07' W 091°02'5 8.4
2018-Feb-18 12:57N 32°11' W 090°60'4 9.2
2018-Feb-18 12:30N 32°15' W 090°59'5 9.2
2018-Feb-18 12:00N 32°18' W 090°55'4 7.4
2018-Feb-18 11:30N 32°21' W 090°58'3 6.5
2018-Feb-18 11:00N 32°24' W 090°59'4 7.4
2018-Feb-18 10:30N 32°26' W 091°03'4 8.0
2018-Feb-18 10:00N 32°28' W 091°07'4 7.8
2018-Feb-18 09:30N 32°32' W 091°06'4 7.1
2018-Feb-18 09:00N 32°35' W 091°08'  
2018-Feb-12 17:47N 32°40' W 091°07'1 3.3
2018-Feb-12 17:30N 32°40' W 091°08'2 3.0
2018-Feb-12 16:51N 32°38' W 091°09'2 3.1
2018-Feb-12 16:15N 32°36' W 091°09'1 3.3
2018-Feb-12 16:00N 32°35' W 091°08'3 3.3
2018-Feb-12 15:05N 32°33' W 091°06'0 3.1
2018-Feb-12 14:59N 32°33' W 091°06'2 3.4
2018-Feb-12 14:30N 32°31' W 091°06'2 3.8
2018-Feb-12 14:00N 32°29' W 091°07'2 3.7
2018-Feb-12 13:30N 32°28' W 091°06'2 4.0
2018-Feb-12 13:00N 32°27' W 091°04'2 3.8
2018-Feb-12 12:30N 32°26' W 091°02'2 3.7
2018-Feb-12 12:00N 32°25' W 090°60'2 3.0
2018-Feb-12 11:30N 32°24' W 090°60'1 2.5
2018-Feb-12 11:00N 32°22' W 091°00'0 0.0
2018-Feb-12 10:30N 32°22' W 091°00'0 0.3
2018-Feb-12 10:00N 32°22' W 091°00'1 2.1
2018-Feb-12 09:30N 32°21' W 091°00'2 4.1
2018-Feb-12 09:00N 32°21' W 090°58'0 0.7
2018-Feb-12 08:30N 32°21' W 090°57'0 0.2
2018-Feb-12 08:00N 32°21' W 090°57'2 3.4
2018-Feb-12 07:30N 32°21' W 090°55'2 3.2
2018-Feb-12 07:00N 32°20' W 090°54'1 2.9
2018-Feb-12 06:30N 32°18' W 090°55'2 3.6
2018-Feb-12 06:00N 32°17' W 090°56'2 3.5
2018-Feb-12 05:30N 32°16' W 090°58'2 3.0
2018-Feb-12 05:00N 32°15' W 090°59'1 1.5
2018-Feb-12 04:30N 32°14' W 090°59'1 2.9
2018-Feb-12 04:00N 32°13' W 090°59'2 3.0
2018-Feb-12 03:30N 32°11' W 090°60'2 3.3
2018-Feb-12 03:00N 32°09' W 091°00'2 3.4
2018-Feb-12 02:30N 32°08' W 091°01'1 2.7
2018-Feb-12 02:00N 32°07' W 091°02'2 3.7
2018-Feb-12 01:20N 32°08' W 091°05'1 3.2
2018-Feb-12 01:00N 32°08' W 091°06'1 2.7
2018-Feb-12 00:30N 32°06' W 091°06'3 2.2
2018-Feb-11 23:06N 32°04' W 091°04'0 3.4
2018-Feb-11 23:00N 32°04' W 091°04'2 3.2
2018-Feb-11 22:30N 32°02' W 091°04'1 1.5
2018-Feb-11 21:58N 32°02' W 091°04'0 0.1
2018-Feb-11 21:25N 32°02' W 091°04'2 3.4
2018-Feb-11 20:48N 32°00' W 091°05'  
2018-Feb-09 00:00N 32°08' W 091°07'9 5.7
2018-Feb-08 22:30N 32°13' W 090°59'8 8.1
2018-Feb-08 21:30N 32°20' W 090°54'2 4.8
2018-Feb-08 21:00N 32°21' W 090°57'3 6.6
2018-Feb-08 20:30N 32°22' W 091°00'3 6.8
2018-Feb-08 20:00N 32°26' W 091°01'10 6.9
2018-Feb-08 18:30N 32°35' W 091°07'  
Track history (hours):
 
Tides and Currents Weather Stations Pressure Air Temp Water Temp Dewpoint Dewpoint Depression Visibility Wind Speed Wind Dir Waves Ship Positions

Sally Bromfield

Owner: Ingram Barge Company LLC, Nashville, TN. More information available from US FCC via Universal Licensing System and Coast Guard Vessel Documentation Center.

Last reported at 2018-Feb-18 15:38 UTC. Time now 2018-Feb-22 15:08 UTC.
Position N 31°59' W 091°09'.

Length 55 m; draft 3 m.

Type: Towing. MMSI: 367533050.

Date/timePositionNaut miles runAvg speedWind from/ knotsBaromVisibWave heightAir tempDewpointWater temp
2018-Feb-18 15:38N 31°59' W 091°09'2 6.8
2018-Feb-18 15:24N 31°59' W 091°07'3 6.7
2018-Feb-18 14:55N 32°01' W 091°04'4 6.8
2018-Feb-18 14:18N 32°05' W 091°05'2 8.0
2018-Feb-18 14:00N 32°07' W 091°07'4 7.9
2018-Feb-18 13:30N 32°07' W 091°02'5 8.4
2018-Feb-18 12:57N 32°11' W 090°60'4 9.2
2018-Feb-18 12:30N 32°15' W 090°59'5 9.2
2018-Feb-18 12:00N 32°18' W 090°55'4 7.4
2018-Feb-18 11:30N 32°21' W 090°58'3 6.5
2018-Feb-18 11:00N 32°24' W 090°59'4 7.4
2018-Feb-18 10:30N 32°26' W 091°03'4 8.0
2018-Feb-18 10:00N 32°28' W 091°07'4 7.8
2018-Feb-18 09:30N 32°32' W 091°06'4 7.1
2018-Feb-18 09:00N 32°35' W 091°08'  
2018-Feb-12 17:47N 32°40' W 091°07'1 3.3
2018-Feb-12 17:30N 32°40' W 091°08'2 3.0
2018-Feb-12 16:51N 32°38' W 091°09'2 3.1
2018-Feb-12 16:15N 32°36' W 091°09'1 3.3
2018-Feb-12 16:00N 32°35' W 091°08'3 3.3
2018-Feb-12 15:05N 32°33' W 091°06'0 3.1
2018-Feb-12 14:59N 32°33' W 091°06'2 3.4
2018-Feb-12 14:30N 32°31' W 091°06'2 3.8
2018-Feb-12 14:00N 32°29' W 091°07'2 3.7
2018-Feb-12 13:30N 32°28' W 091°06'2 4.0
2018-Feb-12 13:00N 32°27' W 091°04'2 3.8
2018-Feb-12 12:30N 32°26' W 091°02'2 3.7
2018-Feb-12 12:00N 32°25' W 090°60'2 3.0
2018-Feb-12 11:30N 32°24' W 090°60'1 2.5
2018-Feb-12 11:00N 32°22' W 091°00'0 0.0
2018-Feb-12 10:30N 32°22' W 091°00'0 0.3
2018-Feb-12 10:00N 32°22' W 091°00'1 2.1
2018-Feb-12 09:30N 32°21' W 091°00'2 4.1
2018-Feb-12 09:00N 32°21' W 090°58'0 0.7
2018-Feb-12 08:30N 32°21' W 090°57'0 0.2
2018-Feb-12 08:00N 32°21' W 090°57'2 3.4
2018-Feb-12 07:30N 32°21' W 090°55'2 3.2
2018-Feb-12 07:00N 32°20' W 090°54'1 2.9
2018-Feb-12 06:30N 32°18' W 090°55'2 3.6
2018-Feb-12 06:00N 32°17' W 090°56'2 3.5
2018-Feb-12 05:30N 32°16' W 090°58'2 3.0
2018-Feb-12 05:00N 32°15' W 090°59'1 1.5
2018-Feb-12 04:30N 32°14' W 090°59'1 2.9
2018-Feb-12 04:00N 32°13' W 090°59'2 3.0
2018-Feb-12 03:30N 32°11' W 090°60'2 3.3
2018-Feb-12 03:00N 32°09' W 091°00'2 3.4
2018-Feb-12 02:30N 32°08' W 091°01'1 2.7
2018-Feb-12 02:00N 32°07' W 091°02'2 3.7
2018-Feb-12 01:20N 32°08' W 091°05'1 3.2
2018-Feb-12 01:00N 32°08' W 091°06'1 2.7
2018-Feb-12 00:30N 32°06' W 091°06'3 2.2
2018-Feb-11 23:06N 32°04' W 091°04'0 3.4
2018-Feb-11 23:00N 32°04' W 091°04'2 3.2
2018-Feb-11 22:30N 32°02' W 091°04'1 1.5
2018-Feb-11 21:58N 32°02' W 091°04'0 0.1
2018-Feb-11 21:25N 32°02' W 091°04'2 3.4
2018-Feb-11 20:48N 32°00' W 091°05'  
2018-Feb-09 00:00N 32°08' W 091°07'9 5.7
2018-Feb-08 22:30N 32°13' W 090°59'8 8.1
2018-Feb-08 21:30N 32°20' W 090°54'2 4.8
2018-Feb-08 21:00N 32°21' W 090°57'3 6.6
2018-Feb-08 20:30N 32°22' W 091°00'3 6.8
2018-Feb-08 20:00N 32°26' W 091°01'10 6.9
2018-Feb-08 18:30N 32°35' W 091°07'  

Dump ship's entire track history